Groton, Connecticut
Current Conditions -  °F | °C
As of 2:56 AM on Monday 26 Jan 2015 (Local Time) from KGON Reporting Station
Overcast Overcast  
Wind Chill: -12°   Ceiling: 8500
Heat Index: -6°   Visibility: 10mi
Dew Point: -14°   Wind: 10mph
Humidity: 51%   Direction: 20°NNE
Pressure: 30.05"   Gusts: NA
Location:  41.35°N, 72.07°W
Report Text: KGON 260756Z AUTO 02009KT 10SM BKN085 OVC110 M06/M14 A3005 RMK AO2 SLP175 T10561144 $
Loading
Personal Weather Stations






























Interactive Weather Map New forecast layout! Learn more

10-Day Weather Forecast

Advertisements
Track Severe Weather on mobile